sensor_id;sensor_type;location;lat;lon;timestamp;P1;durP1;ratioP1;P2;durP2;ratioP2
16845;SDS011;8539;53.188;8.696;2023-07-24T00:00:56;4.85;;;4.28;;
16845;SDS011;8539;53.188;8.696;2023-07-24T00:03:23;8.43;;;5.05;;
16845;SDS011;8539;53.188;8.696;2023-07-24T00:05:50;7.07;;;5.25;;
16845;SDS011;8539;53.188;8.696;2023-07-24T00:08:16;7.10;;;4.45;;
16845;SDS011;8539;53.188;8.696;2023-07-24T00:10:46;12.27;;;4.55;;
16845;SDS011;8539;53.188;8.696;2023-07-24T00:13:13;9.32;;;4.50;;
16845;SDS011;8539;53.188;8.696;2023-07-24T00:15:40;5.07;;;4.35;;
16845;SDS011;8539;53.188;8.696;2023-07-24T00:18:07;10.40;;;4.93;;
16845;SDS011;8539;53.188;8.696;2023-07-24T00:20:34;6.50;;;4.47;;
16845;SDS011;8539;53.188;8.696;2023-07-24T00:23:01;5.55;;;4.65;;
16845;SDS011;8539;53.188;8.696;2023-07-24T00:25:27;5.63;;;4.35;;
16845;SDS011;8539;53.188;8.696;2023-07-24T00:27:53;8.88;;;4.10;;
16845;SDS011;8539;53.188;8.696;2023-07-24T00:30:19;6.65;;;4.95;;
16845;SDS011;8539;53.188;8.696;2023-07-24T00:32:46;48.10;;;7.10;;
16845;SDS011;8539;53.188;8.696;2023-07-24T00:35:12;6.63;;;5.05;;
16845;SDS011;8539;53.188;8.696;2023-07-24T00:37:39;9.23;;;4.47;;
16845;SDS011;8539;53.188;8.696;2023-07-24T00:40:06;8.18;;;5.05;;
16845;SDS011;8539;53.188;8.696;2023-07-24T00:42:32;6.32;;;4.53;;
16845;SDS011;8539;53.188;8.696;2023-07-24T00:44:59;7.03;;;4.43;;
16845;SDS011;8539;53.188;8.696;2023-07-24T00:47:25;5.40;;;4.15;;
16845;SDS011;8539;53.188;8.696;2023-07-24T00:49:53;6.00;;;5.22;;
16845;SDS011;8539;53.188;8.696;2023-07-24T00:52:19;6.25;;;4.90;;
16845;SDS011;8539;53.188;8.696;2023-07-24T00:54:47;5.05;;;4.05;;
16845;SDS011;8539;53.188;8.696;2023-07-24T00:57:13;8.25;;;4.40;;
16845;SDS011;8539;53.188;8.696;2023-07-24T00:59:40;5.25;;;4.70;;
16845;SDS011;8539;53.188;8.696;2023-07-24T01:02:07;6.28;;;4.13;;
16845;SDS011;8539;53.188;8.696;2023-07-24T01:04:33;6.13;;;4.50;;
16845;SDS011;8539;53.188;8.696;2023-07-24T01:07:00;9.52;;;4.93;;
16845;SDS011;8539;53.188;8.696;2023-07-24T01:09:26;5.82;;;4.72;;
16845;SDS011;8539;53.188;8.696;2023-07-24T01:11:55;7.50;;;4.88;;
16845;SDS011;8539;53.188;8.696;2023-07-24T01:14:26;5.73;;;4.73;;
16845;SDS011;8539;53.188;8.696;2023-07-24T01:17:01;5.40;;;4.68;;
16845;SDS011;8539;53.188;8.696;2023-07-24T01:19:37;5.35;;;4.68;;
16845;SDS011;8539;53.188;8.696;2023-07-24T01:22:20;6.95;;;4.93;;
16845;SDS011;8539;53.188;8.696;2023-07-24T01:27:45;12.38;;;5.47;;
16845;SDS011;8539;53.188;8.696;2023-07-24T01:30:12;5.35;;;4.63;;
16845;SDS011;8539;53.188;8.696;2023-07-24T01:32:42;8.40;;;4.97;;
16845;SDS011;8539;53.188;8.696;2023-07-24T01:35:08;6.03;;;4.25;;
16845;SDS011;8539;53.188;8.696;2023-07-24T01:37:35;6.82;;;4.75;;
16845;SDS011;8539;53.188;8.696;2023-07-24T01:40:05;11.20;;;5.70;;
16845;SDS011;8539;53.188;8.696;2023-07-24T01:42:33;11.82;;;5.38;;
16845;SDS011;8539;53.188;8.696;2023-07-24T01:45:00;5.40;;;4.72;;
16845;SDS011;8539;53.188;8.696;2023-07-24T01:47:27;8.63;;;5.53;;
16845;SDS011;8539;53.188;8.696;2023-07-24T01:49:53;8.15;;;5.20;;
16845;SDS011;8539;53.188;8.696;2023-07-24T01:52:19;8.27;;;5.72;;
16845;SDS011;8539;53.188;8.696;2023-07-24T01:54:45;8.25;;;6.10;;
16845;SDS011;8539;53.188;8.696;2023-07-24T01:57:11;7.45;;;5.47;;
16845;SDS011;8539;53.188;8.696;2023-07-24T01:59:37;6.72;;;5.63;;
16845;SDS011;8539;53.188;8.696;2023-07-24T02:02:03;7.18;;;6.22;;
16845;SDS011;8539;53.188;8.696;2023-07-24T02:04:29;9.82;;;6.97;;
16845;SDS011;8539;53.188;8.696;2023-07-24T02:06:56;8.48;;;6.10;;
16845;SDS011;8539;53.188;8.696;2023-07-24T02:09:22;7.90;;;6.75;;
16845;SDS011;8539;53.188;8.696;2023-07-24T02:11:48;7.53;;;6.80;;
16845;SDS011;8539;53.188;8.696;2023-07-24T02:14:14;8.45;;;5.82;;
16845;SDS011;8539;53.188;8.696;2023-07-24T02:16:42;8.50;;;6.13;;
16845;SDS011;8539;53.188;8.696;2023-07-24T02:19:08;8.82;;;6.35;;
16845;SDS011;8539;53.188;8.696;2023-07-24T02:21:34;7.78;;;6.97;;
16845;SDS011;8539;53.188;8.696;2023-07-24T02:24:00;10.23;;;6.53;;
16845;SDS011;8539;53.188;8.696;2023-07-24T02:26:26;10.98;;;7.00;;
16845;SDS011;8539;53.188;8.696;2023-07-24T02:28:52;7.95;;;6.95;;
16845;SDS011;8539;53.188;8.696;2023-07-24T02:31:19;35.33;;;9.10;;
16845;SDS011;8539;53.188;8.696;2023-07-24T02:33:46;7.35;;;5.32;;
16845;SDS011;8539;53.188;8.696;2023-07-24T02:36:12;6.72;;;6.03;;
16845;SDS011;8539;53.188;8.696;2023-07-24T02:38:38;6.65;;;5.93;;
16845;SDS011;8539;53.188;8.696;2023-07-24T02:41:04;8.07;;;6.07;;
16845;SDS011;8539;53.188;8.696;2023-07-24T02:43:30;8.30;;;6.75;;
16845;SDS011;8539;53.188;8.696;2023-07-24T02:45:59;8.20;;;6.50;;
16845;SDS011;8539;53.188;8.696;2023-07-24T02:48:27;6.50;;;5.90;;
16845;SDS011;8539;53.188;8.696;2023-07-24T02:50:53;9.65;;;6.28;;
16845;SDS011;8539;53.188;8.696;2023-07-24T02:53:19;6.75;;;6.05;;
16845;SDS011;8539;53.188;8.696;2023-07-24T02:55:46;12.75;;;6.45;;
16845;SDS011;8539;53.188;8.696;2023-07-24T02:58:12;6.45;;;5.75;;
16845;SDS011;8539;53.188;8.696;2023-07-24T03:00:39;7.97;;;6.18;;
16845;SDS011;8539;53.188;8.696;2023-07-24T03:03:06;7.63;;;6.10;;
16845;SDS011;8539;53.188;8.696;2023-07-24T03:05:33;6.72;;;6.00;;
16845;SDS011;8539;53.188;8.696;2023-07-24T03:08:00;6.97;;;6.28;;
16845;SDS011;8539;53.188;8.696;2023-07-24T03:10:26;6.95;;;6.25;;
16845;SDS011;8539;53.188;8.696;2023-07-24T03:12:52;9.43;;;6.85;;
16845;SDS011;8539;53.188;8.696;2023-07-24T03:15:19;7.35;;;5.85;;
16845;SDS011;8539;53.188;8.696;2023-07-24T03:17:47;8.48;;;6.05;;
16845;SDS011;8539;53.188;8.696;2023-07-24T03:20:16;7.40;;;6.47;;
16845;SDS011;8539;53.188;8.696;2023-07-24T03:22:44;9.70;;;6.63;;
16845;SDS011;8539;53.188;8.696;2023-07-24T03:25:10;12.60;;;7.20;;
16845;SDS011;8539;53.188;8.696;2023-07-24T03:27:36;7.35;;;5.80;;
16845;SDS011;8539;53.188;8.696;2023-07-24T03:30:02;8.65;;;6.55;;
16845;SDS011;8539;53.188;8.696;2023-07-24T03:32:29;10.25;;;7.40;;
16845;SDS011;8539;53.188;8.696;2023-07-24T03:34:55;7.30;;;6.35;;
16845;SDS011;8539;53.188;8.696;2023-07-24T03:37:21;7.30;;;6.07;;
16845;SDS011;8539;53.188;8.696;2023-07-24T03:39:47;9.48;;;6.70;;
16845;SDS011;8539;53.188;8.696;2023-07-24T03:42:14;7.70;;;6.43;;
16845;SDS011;8539;53.188;8.696;2023-07-24T03:44:54;9.80;;;7.38;;
16845;SDS011;8539;53.188;8.696;2023-07-24T03:47:21;11.00;;;6.57;;
16845;SDS011;8539;53.188;8.696;2023-07-24T03:49:47;8.85;;;6.80;;
16845;SDS011;8539;53.188;8.696;2023-07-24T03:52:13;9.10;;;7.47;;
16845;SDS011;8539;53.188;8.696;2023-07-24T03:54:39;8.15;;;7.07;;
16845;SDS011;8539;53.188;8.696;2023-07-24T03:57:05;11.35;;;8.10;;
16845;SDS011;8539;53.188;8.696;2023-07-24T03:59:31;8.60;;;6.40;;
16845;SDS011;8539;53.188;8.696;2023-07-24T04:01:58;9.80;;;7.43;;
16845;SDS011;8539;53.188;8.696;2023-07-24T04:04:25;7.88;;;6.82;;
16845;SDS011;8539;53.188;8.696;2023-07-24T04:06:51;9.52;;;7.47;;
16845;SDS011;8539;53.188;8.696;2023-07-24T04:09:17;8.77;;;7.88;;
16845;SDS011;8539;53.188;8.696;2023-07-24T04:11:44;8.15;;;6.43;;
16845;SDS011;8539;53.188;8.696;2023-07-24T04:14:10;7.72;;;6.72;;
16845;SDS011;8539;53.188;8.696;2023-07-24T04:16:37;8.13;;;6.90;;
16845;SDS011;8539;53.188;8.696;2023-07-24T04:19:04;9.07;;;5.93;;
16845;SDS011;8539;53.188;8.696;2023-07-24T04:21:30;6.85;;;6.15;;
16845;SDS011;8539;53.188;8.696;2023-07-24T04:23:56;6.60;;;5.47;;
16845;SDS011;8539;53.188;8.696;2023-07-24T04:26:22;9.88;;;6.32;;
16845;SDS011;8539;53.188;8.696;2023-07-24T04:28:48;9.05;;;6.57;;
16845;SDS011;8539;53.188;8.696;2023-07-24T04:31:16;7.45;;;6.13;;
16845;SDS011;8539;53.188;8.696;2023-07-24T04:33:42;7.80;;;6.57;;
16845;SDS011;8539;53.188;8.696;2023-07-24T04:36:08;8.30;;;6.43;;
16845;SDS011;8539;53.188;8.696;2023-07-24T04:38:34;7.07;;;5.90;;
16845;SDS011;8539;53.188;8.696;2023-07-24T04:41:00;7.88;;;6.50;;
16845;SDS011;8539;53.188;8.696;2023-07-24T04:43:27;5.95;;;5.38;;
16845;SDS011;8539;53.188;8.696;2023-07-24T04:45:54;6.15;;;5.00;;
16845;SDS011;8539;53.188;8.696;2023-07-24T04:48:20;6.93;;;5.82;;
16845;SDS011;8539;53.188;8.696;2023-07-24T04:50:46;5.30;;;4.80;;
16845;SDS011;8539;53.188;8.696;2023-07-24T04:53:12;6.20;;;4.90;;
16845;SDS011;8539;53.188;8.696;2023-07-24T04:55:38;8.98;;;5.35;;
16845;SDS011;8539;53.188;8.696;2023-07-24T04:58:04;5.45;;;4.95;;
16845;SDS011;8539;53.188;8.696;2023-07-24T05:00:30;7.65;;;5.40;;
16845;SDS011;8539;53.188;8.696;2023-07-24T05:02:56;8.68;;;5.50;;
16845;SDS011;8539;53.188;8.696;2023-07-24T05:05:22;9.13;;;5.22;;
16845;SDS011;8539;53.188;8.696;2023-07-24T05:07:48;6.65;;;5.65;;
16845;SDS011;8539;53.188;8.696;2023-07-24T05:10:14;5.97;;;5.28;;
16845;SDS011;8539;53.188;8.696;2023-07-24T05:12:41;6.00;;;5.40;;
16845;SDS011;8539;53.188;8.696;2023-07-24T05:15:08;7.53;;;4.80;;
16845;SDS011;8539;53.188;8.696;2023-07-24T05:17:34;5.93;;;5.25;;
16845;SDS011;8539;53.188;8.696;2023-07-24T05:20:00;5.88;;;5.03;;
16845;SDS011;8539;53.188;8.696;2023-07-24T05:22:26;5.43;;;4.32;;
16845;SDS011;8539;53.188;8.696;2023-07-24T05:24:52;7.55;;;5.28;;
16845;SDS011;8539;53.188;8.696;2023-07-24T05:27:18;7.68;;;5.22;;
16845;SDS011;8539;53.188;8.696;2023-07-24T05:29:44;6.78;;;4.90;;
16845;SDS011;8539;53.188;8.696;2023-07-24T05:32:10;7.75;;;4.75;;
16845;SDS011;8539;53.188;8.696;2023-07-24T05:34:36;6.07;;;5.05;;
16845;SDS011;8539;53.188;8.696;2023-07-24T05:37:02;7.28;;;5.45;;
16845;SDS011;8539;53.188;8.696;2023-07-24T05:39:30;6.13;;;4.45;;
16845;SDS011;8539;53.188;8.696;2023-07-24T05:41:56;6.72;;;5.07;;
16845;SDS011;8539;53.188;8.696;2023-07-24T05:44:22;5.15;;;4.50;;
16845;SDS011;8539;53.188;8.696;2023-07-24T05:46:48;6.32;;;5.68;;
16845;SDS011;8539;53.188;8.696;2023-07-24T05:49:14;7.20;;;5.10;;
16845;SDS011;8539;53.188;8.696;2023-07-24T05:51:40;7.38;;;5.15;;
16845;SDS011;8539;53.188;8.696;2023-07-24T05:54:06;5.93;;;5.07;;
16845;SDS011;8539;53.188;8.696;2023-07-24T05:56:32;5.63;;;4.90;;
16845;SDS011;8539;53.188;8.696;2023-07-24T05:58:58;7.07;;;5.97;;
16845;SDS011;8539;53.188;8.696;2023-07-24T06:01:24;5.68;;;5.10;;
16845;SDS011;8539;53.188;8.696;2023-07-24T06:03:52;6.28;;;5.15;;
16845;SDS011;8539;53.188;8.696;2023-07-24T06:06:18;7.47;;;5.45;;
16845;SDS011;8539;53.188;8.696;2023-07-24T06:08:44;5.57;;;4.97;;
16845;SDS011;8539;53.188;8.696;2023-07-24T06:11:12;10.68;;;5.43;;
16845;SDS011;8539;53.188;8.696;2023-07-24T06:13:38;6.13;;;5.25;;
16845;SDS011;8539;53.188;8.696;2023-07-24T06:16:04;7.53;;;6.78;;
16845;SDS011;8539;53.188;8.696;2023-07-24T06:18:33;6.43;;;5.50;;
16845;SDS011;8539;53.188;8.696;2023-07-24T06:21:00;8.40;;;6.22;;
16845;SDS011;8539;53.188;8.696;2023-07-24T06:23:26;6.20;;;5.60;;
16845;SDS011;8539;53.188;8.696;2023-07-24T06:25:52;7.78;;;6.57;;
16845;SDS011;8539;53.188;8.696;2023-07-24T06:28:19;7.20;;;6.50;;
16845;SDS011;8539;53.188;8.696;2023-07-24T06:30:45;6.78;;;5.95;;
16845;SDS011;8539;53.188;8.696;2023-07-24T06:33:11;8.32;;;6.22;;
16845;SDS011;8539;53.188;8.696;2023-07-24T06:35:37;8.35;;;6.35;;
16845;SDS011;8539;53.188;8.696;2023-07-24T06:38:03;7.13;;;6.28;;
16845;SDS011;8539;53.188;8.696;2023-07-24T06:40:29;7.05;;;6.35;;
16845;SDS011;8539;53.188;8.696;2023-07-24T06:42:55;8.15;;;6.25;;
16845;SDS011;8539;53.188;8.696;2023-07-24T06:45:22;7.45;;;5.93;;
16845;SDS011;8539;53.188;8.696;2023-07-24T06:47:48;9.80;;;7.03;;
16845;SDS011;8539;53.188;8.696;2023-07-24T06:50:17;6.63;;;6.03;;
16845;SDS011;8539;53.188;8.696;2023-07-24T06:52:43;7.00;;;6.30;;
16845;SDS011;8539;53.188;8.696;2023-07-24T06:55:09;7.95;;;6.05;;
16845;SDS011;8539;53.188;8.696;2023-07-24T06:57:35;6.78;;;6.07;;
16845;SDS011;8539;53.188;8.696;2023-07-24T07:00:01;7.38;;;6.68;;
16845;SDS011;8539;53.188;8.696;2023-07-24T07:02:28;9.55;;;7.35;;
16845;SDS011;8539;53.188;8.696;2023-07-24T07:04:54;7.88;;;7.07;;
16845;SDS011;8539;53.188;8.696;2023-07-24T07:07:20;8.82;;;6.78;;
16845;SDS011;8539;53.188;8.696;2023-07-24T07:09:46;6.97;;;6.03;;
16845;SDS011;8539;53.188;8.696;2023-07-24T07:12:12;6.90;;;6.00;;
16845;SDS011;8539;53.188;8.696;2023-07-24T07:14:38;7.13;;;6.43;;
16845;SDS011;8539;53.188;8.696;2023-07-24T07:17:04;7.93;;;6.25;;
16845;SDS011;8539;53.188;8.696;2023-07-24T07:19:30;10.73;;;6.70;;
16845;SDS011;8539;53.188;8.696;2023-07-24T07:21:57;7.28;;;6.43;;
16845;SDS011;8539;53.188;8.696;2023-07-24T07:24:23;8.25;;;7.03;;
16845;SDS011;8539;53.188;8.696;2023-07-24T07:26:49;8.43;;;6.93;;
16845;SDS011;8539;53.188;8.696;2023-07-24T07:29:16;8.98;;;6.88;;
16845;SDS011;8539;53.188;8.696;2023-07-24T07:31:43;8.80;;;7.32;;
16845;SDS011;8539;53.188;8.696;2023-07-24T07:34:09;8.68;;;7.80;;
16845;SDS011;8539;53.188;8.696;2023-07-24T07:36:35;8.50;;;7.70;;
16845;SDS011;8539;53.188;8.696;2023-07-24T07:39:01;7.28;;;6.47;;
16845;SDS011;8539;53.188;8.696;2023-07-24T07:41:28;7.78;;;7.07;;
16845;SDS011;8539;53.188;8.696;2023-07-24T07:43:54;8.75;;;7.05;;
16845;SDS011;8539;53.188;8.696;2023-07-24T07:46:20;8.30;;;7.50;;
16845;SDS011;8539;53.188;8.696;2023-07-24T07:48:46;8.70;;;7.90;;
16845;SDS011;8539;53.188;8.696;2023-07-24T07:51:14;11.00;;;8.23;;
16845;SDS011;8539;53.188;8.696;2023-07-24T07:53:41;10.93;;;7.93;;
16845;SDS011;8539;53.188;8.696;2023-07-24T07:56:07;8.75;;;7.95;;
16845;SDS011;8539;53.188;8.696;2023-07-24T07:58:33;8.32;;;7.63;;
16845;SDS011;8539;53.188;8.696;2023-07-24T08:01:03;9.10;;;8.23;;
16845;SDS011;8539;53.188;8.696;2023-07-24T08:03:31;10.02;;;8.18;;
16845;SDS011;8539;53.188;8.696;2023-07-24T08:05:57;10.18;;;8.75;;
16845;SDS011;8539;53.188;8.696;2023-07-24T08:08:23;9.00;;;8.13;;
16845;SDS011;8539;53.188;8.696;2023-07-24T08:10:50;10.25;;;8.57;;
16845;SDS011;8539;53.188;8.696;2023-07-24T08:13:16;8.98;;;7.97;;
16845;SDS011;8539;53.188;8.696;2023-07-24T08:15:43;9.82;;;8.68;;
16845;SDS011;8539;53.188;8.696;2023-07-24T08:18:09;10.32;;;8.77;;
16845;SDS011;8539;53.188;8.696;2023-07-24T08:20:35;9.60;;;8.70;;
16845;SDS011;8539;53.188;8.696;2023-07-24T08:23:02;11.73;;;8.13;;
16845;SDS011;8539;53.188;8.696;2023-07-24T08:25:29;9.73;;;8.65;;
16845;SDS011;8539;53.188;8.696;2023-07-24T08:27:55;10.45;;;9.30;;
16845;SDS011;8539;53.188;8.696;2023-07-24T08:30:21;10.48;;;9.32;;
16845;SDS011;8539;53.188;8.696;2023-07-24T08:32:48;12.73;;;9.32;;
16845;SDS011;8539;53.188;8.696;2023-07-24T08:35:17;9.07;;;8.18;;
16845;SDS011;8539;53.188;8.696;2023-07-24T08:37:43;9.20;;;8.15;;
16845;SDS011;8539;53.188;8.696;2023-07-24T08:40:12;10.40;;;8.80;;
16845;SDS011;8539;53.188;8.696;2023-07-24T08:42:39;9.50;;;8.40;;
16845;SDS011;8539;53.188;8.696;2023-07-24T08:45:09;10.07;;;9.05;;
16845;SDS011;8539;53.188;8.696;2023-07-24T08:47:44;10.82;;;9.73;;
16845;SDS011;8539;53.188;8.696;2023-07-24T08:50:11;11.57;;;10.48;;
16845;SDS011;8539;53.188;8.696;2023-07-24T08:52:38;11.35;;;10.15;;
16845;SDS011;8539;53.188;8.696;2023-07-24T08:55:05;10.82;;;9.73;;
16845;SDS011;8539;53.188;8.696;2023-07-24T08:57:31;10.32;;;9.23;;
16845;SDS011;8539;53.188;8.696;2023-07-24T08:59:57;11.23;;;7.97;;
16845;SDS011;8539;53.188;8.696;2023-07-24T09:02:26;10.52;;;9.20;;
16845;SDS011;8539;53.188;8.696;2023-07-24T09:04:52;9.73;;;8.77;;
16845;SDS011;8539;53.188;8.696;2023-07-24T09:07:18;10.02;;;8.88;;
16845;SDS011;8539;53.188;8.696;2023-07-24T09:09:46;10.65;;;9.18;;
16845;SDS011;8539;53.188;8.696;2023-07-24T09:12:15;8.65;;;7.85;;
16845;SDS011;8539;53.188;8.696;2023-07-24T09:14:41;9.57;;;8.68;;
16845;SDS011;8539;53.188;8.696;2023-07-24T09:17:08;10.18;;;9.18;;
16845;SDS011;8539;53.188;8.696;2023-07-24T09:19:35;8.98;;;7.78;;
16845;SDS011;8539;53.188;8.696;2023-07-24T09:22:12;8.35;;;7.55;;
16845;SDS011;8539;53.188;8.696;2023-07-24T09:27:25;11.15;;;9.07;;
16845;SDS011;8539;53.188;8.696;2023-07-24T09:29:55;9.88;;;8.27;;
16845;SDS011;8539;53.188;8.696;2023-07-24T09:32:25;8.27;;;7.40;;
16845;SDS011;8539;53.188;8.696;2023-07-24T09:34:53;7.85;;;7.15;;
16845;SDS011;8539;53.188;8.696;2023-07-24T09:37:23;7.95;;;7.15;;
16845;SDS011;8539;53.188;8.696;2023-07-24T09:40:05;8.27;;;7.53;;
16845;SDS011;8539;53.188;8.696;2023-07-24T09:42:32;8.07;;;7.35;;
16845;SDS011;8539;53.188;8.696;2023-07-24T09:45:02;8.57;;;7.68;;
16845;SDS011;8539;53.188;8.696;2023-07-24T09:47:30;7.60;;;6.90;;
16845;SDS011;8539;53.188;8.696;2023-07-24T09:50:00;7.78;;;6.97;;
16845;SDS011;8539;53.188;8.696;2023-07-24T09:52:29;8.20;;;7.50;;
16845;SDS011;8539;53.188;8.696;2023-07-24T09:55:15;6.63;;;5.47;;
16845;SDS011;8539;53.188;8.696;2023-07-24T09:58:00;6.85;;;6.25;;
16845;SDS011;8539;53.188;8.696;2023-07-24T10:00:27;6.28;;;5.68;;
16845;SDS011;8539;53.188;8.696;2023-07-24T10:03:16;6.18;;;5.57;;
16845;SDS011;8539;53.188;8.696;2023-07-24T10:05:44;6.50;;;5.78;;
16845;SDS011;8539;53.188;8.696;2023-07-24T10:08:11;7.40;;;6.13;;
16845;SDS011;8539;53.188;8.696;2023-07-24T10:10:38;6.80;;;6.15;;
16845;SDS011;8539;53.188;8.696;2023-07-24T10:13:04;6.93;;;6.30;;
16845;SDS011;8539;53.188;8.696;2023-07-24T10:15:31;7.80;;;7.10;;
16845;SDS011;8539;53.188;8.696;2023-07-24T10:18:04;8.75;;;7.15;;
16845;SDS011;8539;53.188;8.696;2023-07-24T10:20:38;7.72;;;7.03;;
16845;SDS011;8539;53.188;8.696;2023-07-24T10:25:38;5.88;;;5.38;;
16845;SDS011;8539;53.188;8.696;2023-07-24T10:28:10;6.55;;;5.93;;
16845;SDS011;8539;53.188;8.696;2023-07-24T10:30:38;10.90;;;7.60;;
16845;SDS011;8539;53.188;8.696;2023-07-24T10:33:08;7.28;;;5.68;;
16845;SDS011;8539;53.188;8.696;2023-07-24T10:35:37;6.97;;;6.05;;
16845;SDS011;8539;53.188;8.696;2023-07-24T10:38:12;5.45;;;4.95;;
16845;SDS011;8539;53.188;8.696;2023-07-24T10:40:39;6.13;;;5.53;;
16845;SDS011;8539;53.188;8.696;2023-07-24T10:43:08;5.40;;;4.90;;
16845;SDS011;8539;53.188;8.696;2023-07-24T10:45:46;6.43;;;5.70;;
16845;SDS011;8539;53.188;8.696;2023-07-24T10:48:24;5.97;;;5.40;;
16845;SDS011;8539;53.188;8.696;2023-07-24T10:50:51;7.13;;;4.90;;
16845;SDS011;8539;53.188;8.696;2023-07-24T10:53:18;5.47;;;5.03;;
16845;SDS011;8539;53.188;8.696;2023-07-24T10:55:46;8.88;;;6.00;;
16845;SDS011;8539;53.188;8.696;2023-07-24T10:58:13;6.72;;;6.03;;
16845;SDS011;8539;53.188;8.696;2023-07-24T11:00:40;5.90;;;5.32;;
16845;SDS011;8539;53.188;8.696;2023-07-24T11:03:12;6.25;;;5.65;;
16845;SDS011;8539;53.188;8.696;2023-07-24T11:05:42;7.30;;;5.82;;
16845;SDS011;8539;53.188;8.696;2023-07-24T11:10:52;6.63;;;6.03;;
16845;SDS011;8539;53.188;8.696;2023-07-24T11:13:23;8.57;;;6.20;;
16845;SDS011;8539;53.188;8.696;2023-07-24T11:15:51;7.43;;;6.68;;
16845;SDS011;8539;53.188;8.696;2023-07-24T11:18:18;7.65;;;6.38;;
16845;SDS011;8539;53.188;8.696;2023-07-24T11:20:51;6.72;;;5.35;;
16845;SDS011;8539;53.188;8.696;2023-07-24T11:23:22;9.20;;;6.88;;
16845;SDS011;8539;53.188;8.696;2023-07-24T11:25:53;8.38;;;6.32;;
16845;SDS011;8539;53.188;8.696;2023-07-24T11:28:22;7.15;;;5.93;;
16845;SDS011;8539;53.188;8.696;2023-07-24T11:31:01;6.13;;;5.38;;
16845;SDS011;8539;53.188;8.696;2023-07-24T11:33:28;8.63;;;6.90;;
16845;SDS011;8539;53.188;8.696;2023-07-24T11:35:54;6.95;;;6.35;;
16845;SDS011;8539;53.188;8.696;2023-07-24T11:38:21;7.03;;;6.18;;
16845;SDS011;8539;53.188;8.696;2023-07-24T11:40:53;7.63;;;6.00;;
16845;SDS011;8539;53.188;8.696;2023-07-24T11:46:22;7.82;;;5.82;;
16845;SDS011;8539;53.188;8.696;2023-07-24T11:49:17;5.40;;;4.85;;
16845;SDS011;8539;53.188;8.696;2023-07-24T11:51:44;7.15;;;5.55;;
16845;SDS011;8539;53.188;8.696;2023-07-24T11:54:11;6.20;;;5.40;;
16845;SDS011;8539;53.188;8.696;2023-07-24T11:56:37;7.75;;;6.30;;
16845;SDS011;8539;53.188;8.696;2023-07-24T11:59:15;6.30;;;5.68;;
16845;SDS011;8539;53.188;8.696;2023-07-24T12:04:39;8.23;;;7.03;;
16845;SDS011;8539;53.188;8.696;2023-07-24T12:07:08;6.22;;;5.40;;
16845;SDS011;8539;53.188;8.696;2023-07-24T12:09:36;7.20;;;6.10;;
16845;SDS011;8539;53.188;8.696;2023-07-24T12:12:03;8.25;;;6.28;;
16845;SDS011;8539;53.188;8.696;2023-07-24T12:14:32;6.13;;;5.47;;
16845;SDS011;8539;53.188;8.696;2023-07-24T12:17:02;7.25;;;6.55;;
16845;SDS011;8539;53.188;8.696;2023-07-24T12:19:28;7.28;;;6.55;;
16845;SDS011;8539;53.188;8.696;2023-07-24T12:21:55;6.43;;;5.80;;
16845;SDS011;8539;53.188;8.696;2023-07-24T12:24:21;7.32;;;5.70;;
16845;SDS011;8539;53.188;8.696;2023-07-24T12:26:47;6.30;;;5.63;;
16845;SDS011;8539;53.188;8.696;2023-07-24T12:29:13;5.88;;;5.13;;
16845;SDS011;8539;53.188;8.696;2023-07-24T12:31:39;6.40;;;5.80;;
16845;SDS011;8539;53.188;8.696;2023-07-24T12:34:06;5.95;;;4.60;;
16845;SDS011;8539;53.188;8.696;2023-07-24T12:36:32;6.38;;;5.70;;
16845;SDS011;8539;53.188;8.696;2023-07-24T12:38:58;7.30;;;5.00;;
16845;SDS011;8539;53.188;8.696;2023-07-24T12:41:24;9.65;;;6.13;;
16845;SDS011;8539;53.188;8.696;2023-07-24T12:43:51;5.82;;;5.25;;
16845;SDS011;8539;53.188;8.696;2023-07-24T12:46:17;7.00;;;5.68;;
16845;SDS011;8539;53.188;8.696;2023-07-24T12:48:43;7.65;;;6.18;;
16845;SDS011;8539;53.188;8.696;2023-07-24T12:51:09;5.90;;;5.28;;
16845;SDS011;8539;53.188;8.696;2023-07-24T12:53:39;5.95;;;5.35;;
16845;SDS011;8539;53.188;8.696;2023-07-24T12:56:06;7.75;;;5.68;;
16845;SDS011;8539;53.188;8.696;2023-07-24T12:58:32;5.93;;;5.03;;
16845;SDS011;8539;53.188;8.696;2023-07-24T13:00:58;6.72;;;5.05;;
16845;SDS011;8539;53.188;8.696;2023-07-24T13:03:24;6.78;;;5.03;;
16845;SDS011;8539;53.188;8.696;2023-07-24T13:05:51;5.53;;;5.03;;
16845;SDS011;8539;53.188;8.696;2023-07-24T13:08:17;9.27;;;5.65;;
16845;SDS011;8539;53.188;8.696;2023-07-24T13:10:47;5.55;;;4.32;;
16845;SDS011;8539;53.188;8.696;2023-07-24T13:13:15;5.93;;;5.28;;
16845;SDS011;8539;53.188;8.696;2023-07-24T13:15:41;5.15;;;4.65;;
16845;SDS011;8539;53.188;8.696;2023-07-24T13:18:07;6.70;;;5.30;;
16845;SDS011;8539;53.188;8.696;2023-07-24T13:20:33;9.00;;;6.72;;
16845;SDS011;8539;53.188;8.696;2023-07-24T13:22:59;5.55;;;4.90;;
16845;SDS011;8539;53.188;8.696;2023-07-24T13:25:25;6.13;;;5.63;;
16845;SDS011;8539;53.188;8.696;2023-07-24T13:27:51;6.72;;;6.00;;
16845;SDS011;8539;53.188;8.696;2023-07-24T13:30:18;6.43;;;5.53;;
16845;SDS011;8539;53.188;8.696;2023-07-24T13:32:45;6.85;;;5.72;;
16845;SDS011;8539;53.188;8.696;2023-07-24T13:35:11;7.68;;;6.82;;
16845;SDS011;8539;53.188;8.696;2023-07-24T13:37:37;7.18;;;6.32;;
16845;SDS011;8539;53.188;8.696;2023-07-24T13:40:03;7.43;;;6.70;;
16845;SDS011;8539;53.188;8.696;2023-07-24T13:42:30;8.07;;;6.75;;
16845;SDS011;8539;53.188;8.696;2023-07-24T13:44:56;8.45;;;7.00;;
16845;SDS011;8539;53.188;8.696;2023-07-24T13:47:22;6.97;;;6.25;;
16845;SDS011;8539;53.188;8.696;2023-07-24T13:49:49;9.40;;;6.10;;
16845;SDS011;8539;53.188;8.696;2023-07-24T13:52:15;9.45;;;6.55;;
16845;SDS011;8539;53.188;8.696;2023-07-24T13:54:41;8.77;;;6.30;;
16845;SDS011;8539;53.188;8.696;2023-07-24T13:57:07;7.80;;;6.05;;
16845;SDS011;8539;53.188;8.696;2023-07-24T13:59:37;8.10;;;6.55;;
16845;SDS011;8539;53.188;8.696;2023-07-24T14:02:06;6.93;;;5.22;;
16845;SDS011;8539;53.188;8.696;2023-07-24T14:04:32;7.63;;;6.00;;
16845;SDS011;8539;53.188;8.696;2023-07-24T14:06:58;6.55;;;5.85;;
16845;SDS011;8539;53.188;8.696;2023-07-24T14:09:25;8.10;;;5.63;;
16845;SDS011;8539;53.188;8.696;2023-07-24T14:11:51;5.25;;;4.70;;
16845;SDS011;8539;53.188;8.696;2023-07-24T14:14:17;6.65;;;5.72;;
16845;SDS011;8539;53.188;8.696;2023-07-24T14:16:44;8.73;;;5.65;;
16845;SDS011;8539;53.188;8.696;2023-07-24T14:19:10;5.78;;;5.15;;
16845;SDS011;8539;53.188;8.696;2023-07-24T14:21:36;9.55;;;5.65;;
16845;SDS011;8539;53.188;8.696;2023-07-24T14:24:02;7.50;;;6.70;;
16845;SDS011;8539;53.188;8.696;2023-07-24T14:26:28;11.43;;;7.10;;
16845;SDS011;8539;53.188;8.696;2023-07-24T14:28:54;6.65;;;5.55;;
16845;SDS011;8539;53.188;8.696;2023-07-24T14:31:20;7.57;;;4.80;;
16845;SDS011;8539;53.188;8.696;2023-07-24T14:33:46;6.65;;;5.82;;
16845;SDS011;8539;53.188;8.696;2023-07-24T14:36:14;9.60;;;5.90;;
16845;SDS011;8539;53.188;8.696;2023-07-24T14:38:41;8.57;;;5.10;;
16845;SDS011;8539;53.188;8.696;2023-07-24T14:41:08;9.15;;;5.38;;
16845;SDS011;8539;53.188;8.696;2023-07-24T14:43:34;6.07;;;4.70;;
16845;SDS011;8539;53.188;8.696;2023-07-24T14:46:00;6.45;;;5.78;;
16845;SDS011;8539;53.188;8.696;2023-07-24T14:48:26;7.20;;;5.20;;
16845;SDS011;8539;53.188;8.696;2023-07-24T14:53:17;7.95;;;5.47;;
16845;SDS011;8539;53.188;8.696;2023-07-24T14:55:43;6.45;;;5.22;;
16845;SDS011;8539;53.188;8.696;2023-07-24T14:58:09;8.85;;;5.57;;
16845;SDS011;8539;53.188;8.696;2023-07-24T15:00:35;5.63;;;3.83;;
16845;SDS011;8539;53.188;8.696;2023-07-24T15:03:02;7.03;;;3.58;;
16845;SDS011;8539;53.188;8.696;2023-07-24T15:05:28;10.82;;;3.80;;
16845;SDS011;8539;53.188;8.696;2023-07-24T15:07:54;7.25;;;3.35;;
16845;SDS011;8539;53.188;8.696;2023-07-24T15:10:20;6.95;;;3.72;;
16845;SDS011;8539;53.188;8.696;2023-07-24T15:12:46;9.73;;;3.28;;
16845;SDS011;8539;53.188;8.696;2023-07-24T15:15:12;6.40;;;3.20;;
16845;SDS011;8539;53.188;8.696;2023-07-24T15:17:38;7.05;;;3.13;;
16845;SDS011;8539;53.188;8.696;2023-07-24T15:20:05;6.10;;;3.42;;